Terminal Aerodrome Forecast
Issued by NWS Sterling, VA

Current Version | Previous Version | Graphics & Text | Print | Product List | Glossary Off
Versions: 1 2 3 4 5 6 7 8 9 10 11 12 13 14 15 16 17 18 19 20

000
FTUS41 KLWX 252320
TAFDCA
TAF
KDCA 252320Z 2600/2624 10005KT P6SM BKN250
     FM260800 05004KT P6SM BKN006
     FM261400 04005KT P6SM BKN008
     FM261600 04006KT P6SM BKN070=

USA.gov is the U.S. government's official web portal to all federal, state and local government web resources and services.